Djerba Mellita, Tunisia
Current Conditions -  °F | °C
As of 2:30 PM on Thursday 23 Oct 2014 (Local Time) from DTTJ Reporting Station
Few Clouds Few Clouds  
Wind Chill: 77°   Ceiling: Unl
Heat Index: 78°   Visibility: 6mi
Dew Point: 45°   Wind: 18mph
Humidity: 32%   Direction: 320°NW
Pressure: 29.94"   Gusts: NA
Location:  33.87°N, 10.77°E
Report Text: DTTJ 231330Z 32016KT 9999 FEW020 25/07 Q1014 NOSIG
Loading
Personal Weather Stations






























Interactive Weather Map
Tropical Storm Tracking
New forecast layout! Learn more

10-Day Weather Forecast

Advertisements
Track Severe Weather on mobile